Pagrindinis puslapis
METAR-TAF:

METAR-TAF

Oro uostai :

Jizan, Saudo Arabija

platuma: 16-54N, ilguma: 042-35E, Aukštis: 6 m

Dabartinis oras

Ataskaita buvo paskelbta 1 valandą ir 7 minutes, ne 23:00 UTC
Ramus vėjas
Temperatūra 28°C
Drėgmė 79%
Slėgis 1008 hPa
Matomumas 10 km arba daugiau
nėra debesų žemiau 1500 m ir nėra kamuolinių lietaus debesų

METAR: OEGN 212300Z 00000KT CAVOK 28/24 Q1008 NOSIG

Laikas: 03:07 (00:07 UTC)

Prognozė

Ataskaita buvo paskelbta 1 valandą ir 7 minutes, ne 23:00 UTC
Prognozė galioja nuo 22 metu 00 UTC su 23 metu 06 UTC
Vėjas 3 kt nuo kintamojo kryptimis
Matomumas: 8000 m
Mažai debesys ne aukštis 3000 ft
Tapsmas
nuo 22 metu 06 UTC su 22 metu 08 UTC
Vėjas 18 kt iš Vakarų/Pietvakarių
Tapsmas
nuo 22 metu 18 UTC su 22 metu 20 UTC
Vėjas 3 kt nuo kintamojo kryptimis

TAF: OEGN 212300Z 2200/2306 VRB03KT 8000 FEW030 BECMG 2206/2208 24018KT BECMG 2218/2220 VRB03KT

Orai ataskaitas ir orų prognozės (METAR, TAF).

turimą stotys yra geltonos ir raudonos taškus žemėlapyje.

Perkelti pele per norėdami pamatyti stoties vardą.

Tada spustelėkite, norėdami matyti oro stebėjimo ir prognozės.

Norėdami pakeisti žemėlapį: spustelėkite ant žalios mygtukų su juodo kryžiaus žemyn,; žalią mygtuką su brūkšneliu, jei norite nutolinti; arba žalių rodyklių gretimoms žemėlapius.


METAR-TAF: